Monponsett, Massachusetts
Current Conditions -  °F | °C
As of 2:52 AM on Sunday 26 Oct 2014 (Local Time) from KPYM Reporting Station
Broken Clouds Broken Clouds  
Wind Chill: 56°   Ceiling: 11000
Heat Index: 56°   Visibility: 10mi
Dew Point: 48°   Wind: 8mph
Humidity: 75%   Direction: 250°WSW
Pressure: 29.47"   Gusts: NA
Location:  42.02°N, 70.85°W
Report Text: KPYM 260652Z AUTO 25007KT 10SM BKN110 13/09 A2947 RMK AO2 SLP979 T01330089
Loading
Personal Weather Stations






























Interactive Weather Map
Tropical Storm Tracking
New forecast layout! Learn more

10-Day Weather Forecast

Advertisements
Track Severe Weather on mobile